createdAt,value
2023-06-10T00:04:59.198Z,11.9
2023-06-10T00:10:05.221Z,11.9
2023-06-10T00:15:11.553Z,11.8
2023-06-10T00:20:17.344Z,11.8
2023-06-10T00:25:23.401Z,11.8
2023-06-10T00:30:29.472Z,11.8
2023-06-10T00:35:35.524Z,11.8
2023-06-10T00:40:41.591Z,11.7
2023-06-10T00:45:47.699Z,11.8
2023-06-10T00:50:53.723Z,11.6
2023-06-10T00:55:59.813Z,11.6
2023-06-10T01:01:07.783Z,11.6
2023-06-10T01:06:15.558Z,11.6
2023-06-10T01:11:19.842Z,11.6
2023-06-10T01:16:25.984Z,11.6
2023-06-10T01:21:34.404Z,11.6
2023-06-10T01:26:38.015Z,11.6
2023-06-10T01:31:44.175Z,11.6
2023-06-10T01:36:50.156Z,11.4
2023-06-10T01:41:56.212Z,11.4
2023-06-10T01:47:02.381Z,11.4
2023-06-10T01:52:08.364Z,11.4
2023-06-10T01:57:14.396Z,11.4
2023-06-10T02:02:20.633Z,11.4
2023-06-10T02:07:26.522Z,11.4
2023-06-10T02:12:32.575Z,11.4
2023-06-10T02:17:38.860Z,11.4
2023-06-10T02:22:44.719Z,11.4
2023-06-10T02:27:50.765Z,11.4
2023-06-10T02:32:56.843Z,11.2
2023-06-10T02:38:02.945Z,11.2
2023-06-10T02:43:08.973Z,11.2
2023-06-10T02:48:15.056Z,11.2
2023-06-10T02:53:21.094Z,11.2
2023-06-10T02:58:27.181Z,11.2
2023-06-10T03:03:33.247Z,11.2
2023-06-10T03:08:39.303Z,11.2
2023-06-10T03:13:45.379Z,11.2
2023-06-10T03:18:51.492Z,11.2
2023-06-10T03:23:57.535Z,11.2
2023-06-10T03:29:03.539Z,11
2023-06-10T03:34:09.594Z,11
2023-06-10T03:39:15.670Z,11
2023-06-10T03:44:21.753Z,11
2023-06-10T03:54:33.875Z,11
2023-06-10T03:59:39.948Z,11
2023-06-10T04:04:45.995Z,11
2023-06-10T04:09:52.022Z,11
2023-06-10T04:20:04.206Z,11
2023-06-10T04:25:10.570Z,10.8
2023-06-10T04:30:16.297Z,10.8
2023-06-10T04:35:22.369Z,10.8
2023-06-10T04:40:28.429Z,10.8
2023-06-10T04:45:34.519Z,10.8
2023-06-10T04:50:40.557Z,10.8
2023-06-10T04:55:46.623Z,10.8
2023-06-10T05:00:52.705Z,10.8
2023-06-10T05:11:04.796Z,10.7
2023-06-10T05:16:10.893Z,10.7
2023-06-10T05:21:16.937Z,10.7
2023-06-10T05:26:22.991Z,10.7
2023-06-10T05:31:29.066Z,10.7
2023-06-10T05:36:35.133Z,10.7
2023-06-10T05:41:41.161Z,10.7
2023-06-10T05:46:47.255Z,10.7
2023-06-10T05:51:53.294Z,10.8
2023-06-10T05:56:59.352Z,10.8
2023-06-10T06:02:05.506Z,10.8
2023-06-10T06:07:11.506Z,10.8
2023-06-10T06:12:17.544Z,10.8
2023-06-10T06:17:23.674Z,10.8
2023-06-10T06:22:29.700Z,10.8
2023-06-10T06:27:35.746Z,10.8
2023-06-10T06:32:41.914Z,10.8
2023-06-10T06:37:47.899Z,10.8
2023-06-10T06:42:53.962Z,10.9
2023-06-10T06:48:00.043Z,10.9
2023-06-10T06:53:06.097Z,10.9
2023-06-10T06:58:12.137Z,10.9
2023-06-10T07:03:18.201Z,10.9
2023-06-10T07:08:24.273Z,11.1
2023-06-10T07:13:30.308Z,11.1
2023-06-10T07:18:36.372Z,11.2
2023-06-10T07:23:42.457Z,11.2
2023-06-10T07:28:48.516Z,11.2
2023-06-10T07:33:54.572Z,11.4
2023-06-10T07:39:00.635Z,11.6
2023-06-10T07:44:06.684Z,11.4
2023-06-10T07:49:12.748Z,11.8
2023-06-10T07:54:18.809Z,11.8
2023-06-10T07:59:24.888Z,11.8
2023-06-10T08:04:31.048Z,11.6
2023-06-10T08:09:37.038Z,11.8
2023-06-10T08:19:49.148Z,12
2023-06-10T08:24:55.222Z,12.1
2023-06-10T08:30:01.247Z,12
2023-06-10T08:35:07.573Z,11.7
2023-06-10T08:40:13.392Z,11.9
2023-06-10T08:45:19.451Z,11.9
2023-06-10T08:50:25.523Z,11.9
2023-06-10T08:55:32.758Z,12.1
2023-06-10T09:00:37.678Z,12.2
2023-06-10T09:05:43.708Z,12.4
2023-06-10T09:10:49.760Z,12.1
2023-06-10T09:15:55.881Z,12.4
2023-06-10T09:21:01.905Z,12.6
2023-06-10T09:26:10.571Z,12.6
2023-06-10T09:36:21.977Z,13.2
2023-06-10T09:41:27.984Z,12.7
2023-06-10T09:46:34.147Z,12.8
2023-06-10T09:51:40.118Z,12.9
2023-06-10T09:56:46.167Z,12.5
2023-06-10T10:01:52.263Z,12.6
2023-06-10T10:06:58.329Z,13.6
2023-06-10T10:12:04.441Z,14.4
2023-06-10T10:17:10.500Z,14
2023-06-10T10:22:16.495Z,14.2
2023-06-10T10:27:22.565Z,14.6
2023-06-10T10:32:28.683Z,13.9
2023-06-10T10:37:36.554Z,13.5
2023-06-10T10:42:42.588Z,14.8
2023-06-10T10:47:48.686Z,15
2023-06-10T10:52:54.735Z,15
2023-06-10T10:58:00.800Z,16
2023-06-10T11:03:10.147Z,16.2
2023-06-10T11:08:12.978Z,16.9
2023-06-10T11:13:18.984Z,16.7
2023-06-10T11:18:25.047Z,17.3
2023-06-10T11:23:31.128Z,17.3
2023-06-10T11:28:37.270Z,17.3
2023-06-10T11:33:43.283Z,16.7
2023-06-10T11:38:49.262Z,17.6
2023-06-10T11:43:55.325Z,16.9
2023-06-10T11:49:01.418Z,16.3
2023-06-10T11:54:07.455Z,16.9
2023-06-10T11:59:13.547Z,16.7
2023-06-10T12:04:19.936Z,16.3
2023-06-10T12:09:27.317Z,17
2023-06-10T12:24:45.723Z,16.2
2023-06-10T12:29:51.806Z,17
2023-06-10T12:34:57.832Z,16.8
2023-06-10T12:40:03.930Z,16.4
2023-06-10T12:45:10.286Z,17
2023-06-10T12:55:22.075Z,17.7
2023-06-10T13:00:28.138Z,17.7
2023-06-10T13:05:34.185Z,18.4
2023-06-10T13:10:40.275Z,18.4
2023-06-10T13:15:46.402Z,17.7
2023-06-10T13:20:52.378Z,18
2023-06-10T13:31:06.412Z,18.2
2023-06-10T13:36:12.429Z,17.5
2023-06-10T13:41:18.486Z,17.8
2023-06-10T13:46:24.613Z,18.7
2023-06-10T13:51:30.617Z,18.4
2023-06-10T14:06:48.832Z,18.2
2023-06-10T14:11:54.848Z,17.8
2023-06-10T14:17:01.026Z,17.5
2023-06-10T14:22:08.859Z,18
2023-06-10T14:27:14.934Z,17.1
2023-06-10T14:32:21.087Z,16.7
2023-06-10T14:37:27.069Z,16.7
2023-06-10T14:42:33.088Z,16.5
2023-06-10T14:47:39.194Z,16.5
2023-06-10T14:52:45.242Z,16.3
2023-06-10T14:57:53.162Z,16.4
2023-06-10T15:02:59.257Z,16.4
2023-06-10T15:08:05.292Z,16.4
2023-06-10T15:13:11.338Z,16.4
2023-06-10T15:18:17.520Z,16.4
2023-06-10T15:23:23.461Z,16.4
2023-06-10T15:28:29.576Z,16.4
2023-06-10T15:33:35.578Z,16.4
2023-06-10T15:43:47.721Z,16.4
2023-06-10T15:48:53.794Z,16.4
2023-06-10T15:53:59.821Z,16.7
2023-06-10T15:59:05.901Z,16.7
2023-06-10T16:04:12.034Z,16.9
2023-06-10T16:09:18.035Z,16.9
2023-06-10T16:19:30.118Z,16.7
2023-06-10T16:24:36.189Z,16.7
2023-06-10T16:29:42.293Z,16.7
2023-06-10T16:34:48.352Z,16.9
2023-06-10T16:39:54.433Z,16.7
2023-06-10T16:45:00.455Z,16.7
2023-06-10T16:50:06.502Z,16.7
2023-06-10T16:55:12.774Z,16.7
2023-06-10T17:00:18.629Z,16.7
2023-06-10T17:05:24.735Z,16.7
2023-06-10T17:10:30.744Z,16.6
2023-06-10T17:15:36.868Z,16.6
2023-06-10T17:20:42.891Z,16.6
2023-06-10T17:25:48.932Z,16.6
2023-06-10T17:30:54.986Z,16.2
2023-06-10T17:36:01.078Z,16.4
2023-06-10T17:46:13.180Z,16.6
2023-06-10T17:51:19.237Z,16.4
2023-06-10T18:01:31.371Z,16.3
2023-06-10T18:06:37.415Z,16.3
2023-06-10T18:11:43.499Z,16.3
2023-06-10T18:16:49.669Z,16.3
2023-06-10T18:21:55.630Z,16.3
2023-06-10T18:27:01.673Z,16.3
2023-06-10T18:32:07.852Z,16.3
2023-06-10T18:37:13.791Z,16.3
2023-06-10T18:42:19.865Z,16
2023-06-10T18:47:25.948Z,16
2023-06-10T18:52:31.978Z,16
2023-06-10T18:57:38.065Z,16
2023-06-10T19:02:44.180Z,16
2023-06-10T19:07:50.367Z,15.8
2023-06-10T19:12:56.236Z,15.8
2023-06-10T19:18:02.406Z,15.8
2023-06-10T19:23:08.365Z,15.8
2023-06-10T19:28:14.408Z,15.5
2023-06-10T19:33:20.483Z,15.5
2023-06-10T19:38:26.538Z,15.5
2023-06-10T19:43:32.653Z,15.5
2023-06-10T19:48:38.675Z,15.5
2023-06-10T19:53:46.588Z,15.3
2023-06-10T19:58:52.666Z,15.3
2023-06-10T20:03:58.767Z,15.3
2023-06-10T20:09:04.807Z,15.3
2023-06-10T20:14:10.851Z,15.2
2023-06-10T20:19:16.912Z,15.2
2023-06-10T20:24:23.160Z,15
2023-06-10T20:29:29.025Z,15
2023-06-10T20:34:35.102Z,15
2023-06-10T20:39:41.161Z,15
2023-06-10T20:44:47.226Z,15
2023-06-10T20:49:53.296Z,15
2023-06-10T20:54:59.328Z,14.8
2023-06-10T21:00:05.475Z,14.8
2023-06-10T21:05:11.637Z,14.8
2023-06-10T21:10:17.546Z,14.7
2023-06-10T21:15:25.501Z,14.7
2023-06-10T21:20:33.448Z,14.5
2023-06-10T21:25:39.473Z,14.5
2023-06-10T21:30:45.564Z,14.5
2023-06-10T21:35:51.587Z,14.5
2023-06-10T21:40:57.675Z,14.5
2023-06-10T21:46:03.743Z,14.3
2023-06-10T22:01:21.949Z,14.3
2023-06-10T22:06:27.974Z,14.3
2023-06-10T22:11:34.043Z,14.1
2023-06-10T22:16:40.159Z,14.1
2023-06-10T22:21:46.146Z,14.1
2023-06-10T22:32:00.168Z,14
2023-06-10T22:37:06.230Z,14
2023-06-10T22:42:12.572Z,13.8
2023-06-10T22:47:18.346Z,13.8
2023-06-10T22:52:24.400Z,13.8
2023-06-10T23:02:38.454Z,13.8
2023-06-10T23:07:44.464Z,13.6
2023-06-10T23:12:50.514Z,13.6
2023-06-10T23:17:58.510Z,13.6
2023-06-10T23:23:04.493Z,13.6
2023-06-10T23:28:10.554Z,13.6
2023-06-10T23:33:16.777Z,13.6
2023-06-10T23:38:24.575Z,13.4
2023-06-10T23:43:30.622Z,13.4
2023-06-10T23:48:36.695Z,13.4
2023-06-10T23:58:50.671Z,13.4
